createdAt,value
2022-11-24T03:45:45.827Z,7.99
2022-11-24T03:46:39.941Z,7.99
2022-11-24T03:47:39.806Z,7.99
2022-11-24T03:48:39.948Z,7.99
2022-11-24T03:49:39.766Z,7.98
2022-11-24T03:50:39.842Z,7.98
2022-11-24T03:51:39.741Z,7.99
2022-11-24T03:52:39.804Z,7.99
2022-11-24T03:53:39.884Z,7.99
2022-11-24T03:54:39.704Z,8.00
2022-11-24T03:55:39.840Z,8.01
2022-11-24T03:56:39.671Z,8.01
2022-11-24T03:57:39.741Z,8.02
2022-11-24T03:58:39.650Z,8.03
2022-11-24T03:59:39.730Z,8.04
2022-11-24T04:00:39.660Z,8.06
2022-11-24T04:01:39.784Z,8.07
2022-11-24T04:02:39.616Z,8.08
2022-11-24T04:03:39.661Z,8.09
2022-11-24T04:04:39.573Z,8.10
2022-11-24T04:05:39.654Z,8.11
2022-11-24T04:06:39.539Z,8.11
2022-11-24T04:07:39.716Z,8.12
2022-11-24T04:08:39.520Z,8.13
2022-11-24T04:09:39.609Z,8.15
2022-11-24T04:10:39.995Z,8.15
2022-11-24T04:11:39.470Z,8.16
2022-11-24T04:12:39.548Z,8.17
2022-11-24T04:13:39.447Z,8.18
2022-11-24T04:14:39.531Z,8.19
2022-11-24T04:15:39.537Z,8.19
2022-11-24T04:16:39.491Z,8.19
2022-11-24T04:17:39.399Z,8.19
2022-11-24T04:18:39.467Z,8.19
2022-11-24T04:19:39.376Z,8.19
2022-11-24T04:20:39.447Z,8.19
2022-11-24T04:21:39.335Z,8.20
2022-11-24T04:22:39.407Z,8.20
2022-11-24T04:23:39.311Z,8.20
2022-11-24T04:24:39.415Z,8.20
2022-11-24T04:25:39.291Z,8.21
2022-11-24T04:26:39.346Z,8.21
2022-11-24T04:27:39.265Z,8.22
2022-11-24T04:28:39.314Z,8.22
2022-11-24T04:29:39.248Z,8.22
2022-11-24T04:30:39.295Z,8.22
2022-11-24T04:31:39.299Z,8.22
2022-11-24T04:32:39.267Z,8.23
2022-11-24T04:33:39.173Z,8.24
2022-11-24T04:34:39.226Z,8.24
2022-11-24T04:35:39.141Z,8.25
2022-11-24T04:36:39.218Z,8.26
2022-11-24T04:37:39.129Z,8.27
2022-11-24T04:39:22.853Z,8.27
2022-11-24T04:39:39.085Z,8.27
2022-11-24T04:40:39.164Z,8.27
2022-11-24T04:41:39.074Z,8.27
2022-11-24T04:42:39.146Z,8.27
2022-11-24T05:09:58.531Z,8.44
2022-11-24T05:10:38.755Z,8.45
2022-11-24T06:20:36.816Z,8.17
2022-11-24T06:21:37.804Z,8.17
2022-11-24T06:22:37.707Z,8.17
2022-11-24T06:23:37.871Z,8.17
2022-11-24T06:24:37.671Z,8.17
2022-11-24T06:25:37.849Z,8.17
2022-11-24T06:26:37.639Z,8.18
2022-11-24T06:27:37.711Z,8.18
2022-11-24T06:28:37.623Z,8.17
2022-11-24T06:29:37.696Z,8.17
2022-11-24T06:30:37.587Z,8.17
2022-11-24T06:31:37.776Z,8.16
2022-11-24T06:32:37.573Z,8.15
2022-11-24T06:33:37.636Z,8.15
2022-11-24T06:34:37.628Z,8.14
2022-11-24T06:35:37.613Z,8.14
2022-11-24T06:36:37.519Z,8.13
2022-11-24T06:37:37.592Z,8.12
2022-11-24T06:38:37.494Z,8.11
2022-11-24T06:39:37.551Z,8.10
2022-11-24T06:40:37.493Z,8.10
2022-11-24T06:41:37.612Z,8.09
2022-11-24T06:42:37.439Z,8.08
2022-11-24T06:43:37.498Z,8.06
2022-11-24T06:44:37.396Z,8.05
2022-11-24T06:45:37.761Z,8.03
2022-11-24T06:46:37.379Z,8.01
2022-11-24T06:47:37.468Z,8.00
2022-11-24T06:48:37.351Z,7.98
2022-11-24T06:49:37.416Z,7.97
2022-11-24T06:50:37.327Z,7.96
2022-11-24T07:01:36.284Z,7.83
2022-11-24T07:03:36.217Z,7.82
2022-11-24T07:05:36.097Z,7.81
2022-11-24T07:06:37.193Z,7.81
2022-11-24T07:07:37.125Z,7.81
2022-11-24T07:08:37.198Z,7.81
2022-11-24T07:09:37.081Z,7.82
2022-11-24T07:10:37.137Z,7.82
2022-11-24T07:11:37.038Z,7.81
2022-11-24T07:12:37.115Z,7.81
2022-11-24T07:13:37.022Z,7.80
2022-11-24T07:14:37.380Z,7.79
2022-11-24T07:15:37.004Z,7.77
2022-11-24T07:16:37.102Z,7.75
2022-11-24T07:17:36.977Z,7.74
2022-11-24T07:18:37.046Z,7.73
2022-11-24T07:19:36.951Z,7.71
2022-11-24T07:20:37.044Z,7.70
2022-11-24T07:21:36.909Z,7.69
2022-11-24T07:22:36.971Z,7.69
2022-11-24T07:23:36.892Z,7.68
2022-11-24T07:24:37.273Z,7.67
2022-11-24T07:25:36.959Z,7.66
2022-11-24T07:26:36.918Z,7.65
2022-11-24T07:27:36.840Z,7.64
2022-11-24T07:28:36.919Z,7.63
2022-11-24T07:29:36.801Z,7.63
2022-11-24T07:30:36.861Z,7.63
2022-11-24T07:31:36.844Z,7.63
2022-11-24T07:32:37.061Z,7.64
2022-11-24T07:33:36.761Z,7.64
2022-11-24T07:34:37.192Z,7.64
2022-11-24T07:35:36.719Z,7.64
2022-11-24T07:36:36.790Z,7.64
2022-11-24T07:37:36.703Z,7.63
2022-11-24T07:38:36.778Z,7.62
2022-11-24T07:39:36.688Z,7.62
2022-11-24T07:40:36.757Z,7.62
2022-11-24T07:41:36.641Z,7.62
2022-11-24T07:42:36.717Z,7.61
2022-11-24T07:43:36.630Z,7.61
2022-11-24T07:44:37.077Z,7.60
2022-11-24T07:45:36.630Z,7.59
2022-11-24T07:46:36.661Z,7.58
2022-11-24T07:47:36.569Z,7.58
2022-11-24T07:48:36.655Z,7.57
2022-11-24T07:49:36.534Z,7.57
2022-11-24T07:50:36.613Z,7.56
2022-11-24T07:51:36.518Z,7.55
2022-11-24T07:52:36.579Z,7.55
2022-11-24T07:53:36.482Z,7.55
2022-11-24T07:54:36.835Z,7.55
2022-11-24T07:55:36.472Z,7.54
2022-11-24T07:56:36.761Z,7.55
2022-11-24T07:57:36.435Z,7.56
2022-11-24T07:58:36.508Z,7.56
2022-11-24T07:59:36.411Z,7.56
2022-11-24T08:00:36.506Z,7.55
2022-11-24T08:01:36.397Z,7.55
2022-11-24T08:02:36.445Z,7.56
2022-11-24T08:03:36.453Z,7.55
2022-11-24T08:04:36.676Z,7.55
2022-11-24T08:05:38.434Z,7.55
2022-11-24T08:06:40.977Z,7.56
2022-11-24T08:07:36.353Z,7.56
2022-11-24T08:08:36.393Z,7.57
2022-11-24T08:09:36.283Z,7.57
2022-11-24T08:35:34.894Z,7.86
2022-11-24T08:36:36.039Z,7.87
2022-11-24T08:37:35.906Z,7.89
2022-11-24T08:38:35.971Z,7.90
2022-11-24T08:39:35.890Z,7.91
2022-11-24T08:40:35.948Z,7.91
2022-11-24T08:41:35.892Z,7.92
2022-11-24T08:42:35.939Z,7.92
2022-11-24T08:43:35.820Z,7.93
2022-11-24T08:44:36.506Z,7.94
2022-11-24T08:45:41.188Z,7.96
2022-11-24T09:06:34.568Z,8.04
2022-11-24T09:07:35.663Z,8.04
2022-11-24T09:08:35.488Z,8.04
2022-11-24T09:09:35.571Z,8.04
2022-11-24T09:10:35.456Z,8.05
2022-11-24T09:11:35.668Z,8.05
2022-11-24T09:12:35.443Z,8.06
2022-11-24T09:13:35.500Z,8.06
2022-11-24T09:14:35.813Z,8.05
2022-11-24T09:15:35.455Z,8.04
2022-11-24T09:45:57.568Z,7.83
2022-11-24T09:46:35.143Z,7.84
2022-11-24T09:47:34.946Z,7.85
2022-11-24T10:27:33.379Z,9.96
2022-11-24T10:29:33.634Z,10.10
2022-11-24T10:30:34.450Z,10.14
2022-11-24T10:31:34.445Z,10.18
2022-11-24T10:32:34.424Z,10.22
2022-11-24T10:33:34.338Z,10.24
2022-11-24T10:34:34.395Z,10.25
2022-11-24T10:35:34.297Z,10.24
2022-11-24T10:36:34.399Z,10.23
2022-11-24T10:37:34.287Z,10.23
2022-11-24T10:38:34.366Z,10.23
2022-11-24T10:39:34.556Z,10.25
2022-11-24T10:40:57.861Z,10.28
2022-11-24T10:41:34.227Z,10.33
2022-11-24T10:42:34.296Z,10.37
2022-11-24T10:43:34.202Z,10.41
2022-11-24T10:44:34.291Z,10.47
2022-11-24T10:45:34.165Z,10.57
2022-11-24T10:46:39.183Z,10.69
2022-11-24T10:47:34.150Z,10.83
2022-11-24T10:48:34.226Z,10.97
2022-11-24T10:49:34.573Z,11.10
2022-11-24T10:50:35.177Z,11.17
2022-11-24T10:51:34.189Z,11.22
2022-11-24T10:52:34.075Z,11.27
2022-11-24T10:53:34.137Z,11.34
2022-11-24T10:54:34.059Z,11.39
2022-11-24T10:55:34.122Z,11.43
2022-11-24T10:56:34.015Z,11.47
2022-11-24T10:57:34.084Z,11.50
2022-11-24T10:58:37.783Z,11.52
2022-11-24T10:59:34.351Z,11.50
2022-11-24T11:00:33.979Z,11.43
2022-11-24T11:02:33.092Z,11.35
2022-11-24T11:03:33.991Z,11.31
2022-11-24T11:04:33.920Z,11.25
2022-11-24T11:05:33.980Z,11.20
2022-11-24T11:06:33.897Z,11.17
2022-11-24T11:07:34.004Z,11.14
2022-11-24T11:08:33.879Z,11.08
2022-11-24T11:09:34.240Z,10.99
2022-11-24T11:10:33.829Z,10.93
2022-11-24T11:11:33.903Z,10.91
2022-11-24T11:12:43.878Z,10.90
2022-11-24T11:13:34.071Z,10.87
2022-11-24T11:14:33.789Z,10.85
2022-11-24T11:20:00.088Z,10.73
2022-11-24T11:20:38.382Z,10.73
2022-11-24T11:21:33.706Z,10.73
2022-11-24T11:28:32.868Z,10.86
2022-11-24T11:31:37.128Z,10.93
2022-11-24T11:34:32.479Z,10.94
2022-11-24T11:35:33.571Z,10.97
2022-11-24T11:36:33.504Z,11.01
2022-11-24T11:37:33.729Z,11.05
2022-11-24T11:38:33.451Z,11.07
2022-11-24T11:39:37.913Z,11.09
2022-11-24T11:40:33.440Z,11.06
2022-11-24T11:41:33.506Z,11.04
2022-11-24T11:43:32.463Z,11.04
2022-11-24T11:44:33.907Z,11.05
2022-11-24T11:45:33.442Z,11.07
2022-11-24T11:51:32.471Z,10.99
2022-11-24T11:52:33.371Z,10.96
2022-11-24T11:53:33.284Z,10.96
2022-11-24T12:09:32.099Z,11.03
2022-11-24T12:10:33.110Z,11.02
2022-11-24T12:11:33.003Z,11.01
2022-11-24T12:19:32.175Z,11.64
2022-11-24T12:20:32.989Z,11.64
2022-11-24T12:41:41.578Z,13.00
2022-11-24T12:42:32.673Z,12.92
2022-11-24T12:43:32.586Z,12.81
2022-11-24T13:11:31.171Z,12.48
2022-11-24T13:12:32.282Z,12.48
2022-11-24T13:13:32.183Z,12.45
2022-11-24T13:14:32.570Z,12.39
2022-11-24T13:15:45.686Z,12.33
2022-11-24T13:24:23.888Z,12.20
2022-11-24T13:24:30.347Z,12.06
2022-11-24T13:25:30.270Z,11.91
2022-11-24T13:26:30.328Z,11.81
2022-11-24T13:27:30.234Z,11.76
2022-11-24T13:29:01.361Z,11.75
2022-11-24T13:29:30.217Z,11.73
2022-11-24T13:30:30.277Z,11.72
2022-11-24T13:31:30.312Z,11.73
2022-11-24T13:37:34.449Z,11.95
2022-11-24T13:38:30.173Z,11.96
2022-11-24T13:39:30.064Z,11.96
2022-11-24T13:40:30.148Z,11.96
2022-11-24T13:41:30.039Z,11.94
2022-11-24T13:42:41.734Z,11.91
2022-11-24T13:43:30.014Z,11.86
2022-11-24T13:44:30.087Z,11.80
2022-11-24T13:45:29.987Z,11.73
2022-11-24T13:46:30.119Z,11.65
2022-11-24T13:47:29.971Z,11.59
2022-11-24T13:48:30.022Z,11.55
2022-11-24T13:49:29.936Z,11.52
2022-11-24T13:50:30.018Z,11.50
2022-11-24T13:51:29.917Z,11.47
2022-11-24T13:52:29.995Z,11.44
2022-11-24T13:53:29.888Z,11.40
2022-11-24T13:54:29.962Z,11.37
2022-11-24T13:55:29.922Z,11.36
2022-11-24T13:56:30.569Z,11.37
2022-11-24T13:57:29.830Z,11.37
2022-11-24T13:58:29.901Z,11.37
2022-11-24T13:59:29.819Z,11.37
2022-11-24T14:00:29.854Z,11.36
2022-11-24T14:01:29.866Z,11.35
2022-11-24T14:02:29.871Z,11.34
2022-11-24T14:03:29.757Z,11.32
2022-11-24T14:04:32.092Z,11.30
2022-11-24T14:05:29.717Z,11.28
2022-11-24T14:06:29.809Z,11.26
2022-11-24T14:07:29.708Z,11.23
2022-11-24T14:08:29.755Z,11.21
2022-11-24T14:09:29.668Z,11.18
2022-11-24T14:10:30.731Z,11.16
2022-11-24T14:11:29.727Z,11.14
2022-11-24T14:12:29.616Z,11.12
2022-11-24T14:13:29.699Z,11.11
2022-11-24T14:14:29.598Z,11.09
2022-11-24T14:15:29.659Z,11.08
2022-11-24T14:16:29.656Z,11.07
2022-11-24T14:17:29.648Z,11.07
2022-11-24T14:18:29.551Z,11.07
2022-11-24T14:19:32.248Z,11.08
2022-11-24T14:20:29.507Z,11.09
2022-11-24T14:21:29.584Z,11.10
2022-11-24T14:22:29.497Z,11.12
2022-11-24T14:23:29.553Z,11.12
2022-11-24T14:24:29.457Z,11.13
2022-11-24T14:25:29.524Z,11.13
2022-11-24T14:26:29.418Z,11.12
2022-11-24T14:27:30.485Z,11.10
2022-11-24T14:28:29.533Z,11.09
2022-11-24T14:29:29.382Z,11.09
2022-11-24T14:30:29.454Z,11.08
2022-11-24T14:31:29.399Z,11.07
2022-11-24T14:32:29.425Z,11.06
2022-11-24T14:33:29.343Z,11.05
2022-11-24T14:34:29.539Z,11.05
2022-11-24T14:35:29.423Z,11.05
2022-11-24T14:36:29.365Z,11.05
2022-11-24T14:37:29.277Z,11.03
2022-11-24T14:38:29.346Z,11.01
2022-11-24T14:39:29.261Z,10.99
